createdAt,value
2022-07-26T00:00:14.349Z,23.98
2022-07-26T00:02:47.318Z,22.80
2022-07-26T00:05:16.254Z,22.00
2022-07-26T00:07:43.618Z,27.05
2022-07-26T00:10:11.415Z,23.83
2022-07-26T00:12:38.790Z,22.70
2022-07-26T00:15:08.434Z,21.70
2022-07-26T00:17:35.513Z,17.55
2022-07-26T00:20:03.172Z,18.27
2022-07-26T00:22:36.147Z,31.70
2022-07-26T00:25:09.027Z,21.23
2022-07-26T00:27:37.425Z,29.85
2022-07-26T00:30:09.947Z,25.20
2022-07-26T00:32:37.911Z,23.73
2022-07-26T00:35:06.010Z,20.80
2022-07-26T00:37:33.449Z,27.52
2022-07-26T00:40:00.587Z,13.88
2022-07-26T00:42:27.608Z,21.70
2022-07-26T00:44:54.700Z,21.52
2022-07-26T00:47:21.652Z,19.80
2022-07-26T00:49:48.803Z,22.92
2022-07-26T00:52:15.842Z,19.85
2022-07-26T00:54:45.782Z,16.75
2022-07-26T00:57:14.377Z,25.80
2022-07-26T00:59:42.016Z,23.17
2022-07-26T01:02:10.810Z,23.27
2022-07-26T01:04:37.953Z,25.08
2022-07-26T01:07:14.574Z,19.75
2022-07-26T01:09:42.458Z,16.67
2022-07-26T01:12:09.641Z,21.00
2022-07-26T01:14:37.168Z,20.50
2022-07-26T01:17:04.234Z,24.38
2022-07-26T01:19:31.332Z,19.27
2022-07-26T01:21:58.428Z,24.38
2022-07-26T01:24:25.481Z,25.03
2022-07-26T01:26:52.441Z,20.20
2022-07-26T01:29:19.466Z,20.15
2022-07-26T01:31:46.493Z,25.02
2022-07-26T01:34:13.596Z,27.65
2022-07-26T01:36:40.603Z,31.55
2022-07-26T01:39:07.936Z,22.05
2022-07-26T01:41:37.921Z,22.40
2022-07-26T01:44:06.668Z,26.60
2022-07-26T01:46:35.239Z,22.67
2022-07-26T01:49:02.752Z,16.38
2022-07-26T01:51:29.870Z,18.15
2022-07-26T01:53:57.146Z,21.13
2022-07-26T01:56:24.375Z,23.35
2022-07-26T01:58:51.346Z,19.05
2022-07-26T02:01:39.463Z,23.60
2022-07-26T02:04:06.103Z,23.35
2022-07-26T02:06:34.361Z,24.45
2022-07-26T02:09:01.795Z,15.30
2022-07-26T02:11:29.082Z,24.65
2022-07-26T02:13:56.068Z,14.60
2022-07-26T02:16:23.087Z,21.17
2022-07-26T02:18:50.131Z,15.98
2022-07-26T02:21:17.097Z,17.17
2022-07-26T02:23:44.950Z,15.60
2022-07-26T02:26:11.934Z,17.20
2022-07-26T02:28:38.982Z,21.63
2022-07-26T02:31:05.969Z,30.35
2022-07-26T02:33:33.122Z,19.83
2022-07-26T02:36:00.075Z,21.38
2022-07-26T02:38:27.059Z,25.73
2022-07-26T02:40:54.006Z,18.88
2022-07-26T02:43:21.003Z,18.90
2022-07-26T02:46:01.850Z,24.60
2022-07-26T02:48:30.431Z,21.08
2022-07-26T02:50:57.457Z,21.00
2022-07-26T02:53:24.411Z,21.17
2022-07-26T02:55:51.777Z,18.45
2022-07-26T02:58:21.650Z,14.25
2022-07-26T03:00:48.827Z,19.92
2022-07-26T03:03:16.023Z,13.03
2022-07-26T03:05:43.071Z,12.63
2022-07-26T03:08:10.062Z,15.88
2022-07-26T03:10:37.068Z,11.75
2022-07-26T03:13:04.220Z,10.02
2022-07-26T03:15:31.355Z,9.17
2022-07-26T03:17:58.472Z,12.40
2022-07-26T03:20:25.562Z,8.75
2022-07-26T03:22:52.604Z,11.30
2022-07-26T03:25:19.748Z,6.45
2022-07-26T03:27:46.716Z,10.20
2022-07-26T03:30:14.558Z,12.70
2022-07-26T03:32:41.873Z,10.57
2022-07-26T03:35:09.139Z,8.05
2022-07-26T03:37:45.758Z,10.65
2022-07-26T03:40:17.445Z,8.33
2022-07-26T03:42:46.455Z,11.75
2022-07-26T03:45:15.463Z,5.05
2022-07-26T03:47:43.134Z,8.77
2022-07-26T03:50:11.174Z,7.70
2022-07-26T03:52:38.308Z,8.20
2022-07-26T03:55:26.350Z,7.95
2022-07-26T03:57:53.720Z,9.35
2022-07-26T04:00:20.707Z,5.38
2022-07-26T04:02:47.765Z,6.78
2022-07-26T04:05:14.796Z,7.90
2022-07-26T04:07:49.895Z,6.38
2022-07-26T04:10:21.240Z,5.68
2022-07-26T04:12:48.667Z,9.20
2022-07-26T04:15:17.232Z,4.68
2022-07-26T04:17:45.175Z,10.43
2022-07-26T04:20:12.871Z,15.35
2022-07-26T04:22:40.539Z,5.43
2022-07-26T04:25:08.873Z,9.05
2022-07-26T04:27:36.452Z,8.43
2022-07-26T04:30:06.672Z,10.33
2022-07-26T04:32:35.439Z,10.50
2022-07-26T04:35:02.457Z,8.18
2022-07-26T04:37:32.891Z,12.27
2022-07-26T04:40:00.253Z,8.38
2022-07-26T04:42:27.280Z,8.77
2022-07-26T04:44:54.205Z,8.18
2022-07-26T04:47:21.218Z,8.80
2022-07-26T04:49:48.526Z,5.32
2022-07-26T04:52:15.524Z,13.20
2022-07-26T04:54:42.471Z,9.30
2022-07-26T04:57:09.457Z,6.82
2022-07-26T04:59:36.436Z,9.55
2022-07-26T05:02:03.655Z,12.77
2022-07-26T05:04:30.726Z,13.30
2022-07-26T05:07:02.457Z,7.30
2022-07-26T05:09:30.099Z,9.43
2022-07-26T05:11:57.048Z,10.40
2022-07-26T05:14:24.019Z,12.48
2022-07-26T05:16:51.067Z,5.35
2022-07-26T05:19:18.111Z,5.83
2022-07-26T05:21:45.087Z,10.52
2022-07-26T05:24:12.544Z,12.13
2022-07-26T05:26:39.764Z,12.20
2022-07-26T05:29:07.060Z,8.20
2022-07-26T05:31:34.112Z,10.13
2022-07-26T05:34:01.259Z,9.63
2022-07-26T05:36:28.204Z,9.70
2022-07-26T05:38:55.163Z,10.30
2022-07-26T05:41:22.340Z,8.73
2022-07-26T05:43:49.332Z,8.00
2022-07-26T05:46:16.409Z,7.57
2022-07-26T05:48:43.645Z,11.52
2022-07-26T05:51:11.159Z,7.72
2022-07-26T05:53:38.923Z,4.72
2022-07-26T05:56:06.843Z,9.30
2022-07-26T05:58:33.847Z,10.30
2022-07-26T06:01:00.998Z,8.43
2022-07-26T06:03:28.643Z,7.25
2022-07-26T06:05:57.689Z,4.50
2022-07-26T06:08:26.134Z,4.93
2022-07-26T06:10:54.392Z,6.10
2022-07-26T06:13:21.640Z,3.85
2022-07-26T06:15:49.000Z,2.22
2022-07-26T06:18:16.248Z,3.75
2022-07-26T06:20:45.703Z,3.67
2022-07-26T06:23:13.195Z,4.18
2022-07-26T06:25:40.717Z,3.33
2022-07-26T06:28:09.643Z,5.35
2022-07-26T06:30:37.994Z,5.40
2022-07-26T06:33:05.769Z,7.63
2022-07-26T06:35:35.006Z,4.68
2022-07-26T06:38:02.815Z,2.58
2022-07-26T06:40:29.874Z,5.57
2022-07-26T06:43:00.094Z,5.53
2022-07-26T06:45:31.891Z,5.87
2022-07-26T06:47:59.034Z,4.38
2022-07-26T06:50:26.117Z,4.75
2022-07-26T06:52:53.140Z,6.07
2022-07-26T06:55:20.380Z,4.18
2022-07-26T06:57:49.933Z,7.00
2022-07-26T07:00:18.569Z,9.00
2022-07-26T07:02:45.584Z,9.23
2022-07-26T07:05:13.178Z,5.97
2022-07-26T07:07:42.138Z,10.07
2022-07-26T07:10:10.515Z,5.77
2022-07-26T07:12:40.180Z,7.65
2022-07-26T07:15:07.730Z,5.20
2022-07-26T07:17:35.174Z,6.82
2022-07-26T07:20:04.310Z,6.65
2022-07-26T07:22:31.939Z,12.67
2022-07-26T07:24:59.099Z,8.63
2022-07-26T07:27:27.360Z,4.93
2022-07-26T07:29:54.403Z,6.35
2022-07-26T07:32:24.671Z,10.32
2022-07-26T07:34:51.803Z,14.90
2022-07-26T07:37:19.949Z,7.47
2022-07-26T07:39:48.810Z,8.15
2022-07-26T07:42:18.304Z,9.10
2022-07-26T07:44:45.305Z,7.75
2022-07-26T07:47:12.461Z,6.40
2022-07-26T07:49:39.536Z,7.25
2022-07-26T07:52:06.759Z,9.13
2022-07-26T07:54:33.742Z,9.80
2022-07-26T07:57:00.782Z,9.10
2022-07-26T07:59:27.702Z,6.87
2022-07-26T08:01:55.979Z,6.57
2022-07-26T08:04:23.119Z,12.95
2022-07-26T08:06:51.493Z,8.57
2022-07-26T08:09:19.310Z,6.65
2022-07-26T08:11:50.800Z,8.38
2022-07-26T08:14:19.045Z,7.38
2022-07-26T08:16:46.860Z,6.53
2022-07-26T08:19:15.530Z,6.18
2022-07-26T08:21:45.790Z,3.00
2022-07-26T08:24:14.087Z,9.77
2022-07-26T08:26:42.547Z,8.85
2022-07-26T08:29:09.723Z,14.23
2022-07-26T08:31:37.380Z,4.20
2022-07-26T08:34:04.627Z,4.95
2022-07-26T08:36:32.892Z,12.90
2022-07-26T08:39:01.318Z,6.38
2022-07-26T08:41:29.067Z,6.60
2022-07-26T08:44:05.318Z,19.73
2022-07-26T08:46:39.018Z,10.25
2022-07-26T08:49:11.860Z,12.25
2022-07-26T08:51:44.295Z,6.63
2022-07-26T08:54:13.806Z,6.68
2022-07-26T08:56:52.113Z,3.97
2022-07-26T08:59:22.170Z,10.77
2022-07-26T09:01:57.165Z,3.65
2022-07-26T09:04:35.397Z,2.47
2022-07-26T09:07:16.711Z,9.80
2022-07-26T09:10:01.714Z,6.03
2022-07-26T09:12:31.132Z,9.02
2022-07-26T09:14:59.170Z,11.02
2022-07-26T09:17:39.426Z,8.07
2022-07-26T09:20:11.280Z,4.78
2022-07-26T09:22:58.003Z,3.67
2022-07-26T09:25:26.405Z,14.18
2022-07-26T09:27:53.749Z,10.32
2022-07-26T09:30:21.074Z,5.65
2022-07-26T09:33:06.622Z,8.45
2022-07-26T09:35:50.459Z,13.98
2022-07-26T09:38:18.455Z,5.28
2022-07-26T09:40:51.059Z,7.80
2022-07-26T09:43:19.901Z,6.13
2022-07-26T09:46:05.127Z,4.63
2022-07-26T09:48:52.346Z,3.70
2022-07-26T09:51:42.446Z,7.50
2022-07-26T09:54:11.269Z,10.10
2022-07-26T09:56:50.453Z,3.42
2022-07-26T09:59:22.380Z,7.45
2022-07-26T10:01:51.260Z,3.63
2022-07-26T10:04:20.294Z,11.57
2022-07-26T10:06:48.135Z,6.80
2022-07-26T10:09:16.190Z,8.45
2022-07-26T10:11:46.173Z,9.98
2022-07-26T10:14:36.101Z,11.88
2022-07-26T10:17:31.433Z,10.05
2022-07-26T10:20:04.191Z,3.47
2022-07-26T10:22:47.612Z,10.80
2022-07-26T10:25:17.581Z,9.05
2022-07-26T10:27:45.548Z,4.97
2022-07-26T10:30:18.805Z,7.07
2022-07-26T10:33:01.389Z,9.05
2022-07-26T10:35:32.643Z,15.40
2022-07-26T10:38:01.981Z,5.60
2022-07-26T10:40:32.435Z,3.05
2022-07-26T10:43:37.724Z,3.33
2022-07-26T10:46:17.202Z,5.13
2022-07-26T10:49:05.265Z,3.72
2022-07-26T10:51:40.649Z,6.47
2022-07-26T10:54:10.930Z,9.02
2022-07-26T10:56:38.767Z,12.65
2022-07-26T10:59:06.769Z,9.13
2022-07-26T11:01:42.579Z,7.18
2022-07-26T11:04:23.102Z,6.78
2022-07-26T11:06:50.665Z,7.18
2022-07-26T11:09:21.268Z,5.20
2022-07-26T11:11:48.807Z,7.78
2022-07-26T11:14:17.706Z,13.65
2022-07-26T11:16:48.330Z,6.68
2022-07-26T11:19:26.485Z,10.38
2022-07-26T11:22:00.821Z,5.90
2022-07-26T11:24:28.682Z,7.65
2022-07-26T11:26:56.743Z,6.63
2022-07-26T11:29:38.672Z,2.65
2022-07-26T11:32:18.129Z,5.93
2022-07-26T11:34:46.311Z,4.97
2022-07-26T11:37:13.863Z,5.88
2022-07-26T11:39:41.155Z,19.73
2022-07-26T11:42:10.597Z,16.55
2022-07-26T11:44:38.063Z,7.65
2022-07-26T11:47:20.303Z,8.57
2022-07-26T11:50:01.153Z,6.95
2022-07-26T11:52:35.475Z,7.47
2022-07-26T11:55:02.476Z,10.30
2022-07-26T11:57:31.353Z,4.07
2022-07-26T11:59:59.079Z,5.07
2022-07-26T12:02:26.891Z,4.78
2022-07-26T12:05:21.280Z,7.32
2022-07-26T12:08:00.346Z,6.25
2022-07-26T12:10:28.099Z,12.10
2022-07-26T12:13:15.580Z,11.27
2022-07-26T12:15:51.175Z,19.17
2022-07-26T12:18:27.073Z,11.68
2022-07-26T12:21:06.349Z,11.95
2022-07-26T12:23:44.813Z,9.25
2022-07-26T12:26:23.400Z,14.13
2022-07-26T12:28:50.583Z,12.50
2022-07-26T12:31:32.318Z,8.45
2022-07-26T12:34:00.112Z,9.63
2022-07-26T12:36:29.793Z,7.85
2022-07-26T12:38:59.173Z,11.18
2022-07-26T12:41:40.437Z,7.88
2022-07-26T12:44:11.961Z,8.77
2022-07-26T12:46:39.342Z,12.43
2022-07-26T12:49:06.494Z,13.88
2022-07-26T12:51:34.043Z,17.13
2022-07-26T12:54:01.182Z,9.52
2022-07-26T12:56:28.111Z,9.80
2022-07-26T12:59:01.247Z,19.50
2022-07-26T13:01:30.143Z,14.40
2022-07-26T13:03:57.280Z,10.80
2022-07-26T13:06:24.252Z,9.50
2022-07-26T13:08:51.226Z,13.45
2022-07-26T13:11:18.263Z,13.15
2022-07-26T13:13:45.232Z,12.38
2022-07-26T13:16:12.616Z,15.95
2022-07-26T13:18:39.901Z,15.57
2022-07-26T13:21:07.181Z,12.93
2022-07-26T13:23:35.688Z,11.25
2022-07-26T13:26:04.420Z,17.60
2022-07-26T13:28:36.231Z,14.60
2022-07-26T13:31:03.400Z,15.70
2022-07-26T13:33:30.507Z,13.57
2022-07-26T13:35:58.486Z,8.75
2022-07-26T13:38:25.771Z,9.75
2022-07-26T13:40:53.256Z,8.63
2022-07-26T13:43:20.243Z,10.35
2022-07-26T13:45:47.252Z,10.50
2022-07-26T13:48:14.285Z,6.97
2022-07-26T13:50:41.247Z,9.35
2022-07-26T13:53:08.393Z,12.15
2022-07-26T13:55:35.402Z,8.38
2022-07-26T13:58:07.626Z,8.87
2022-07-26T14:00:36.636Z,8.20
2022-07-26T14:03:03.988Z,10.75
2022-07-26T14:05:31.015Z,6.85
2022-07-26T14:07:58.038Z,14.35
2022-07-26T14:10:26.004Z,7.90
2022-07-26T14:12:53.664Z,11.77
2022-07-26T14:15:23.163Z,8.27
2022-07-26T14:17:52.424Z,9.85
2022-07-26T14:20:20.741Z,8.48
2022-07-26T14:22:48.296Z,7.83
2022-07-26T14:25:15.429Z,10.15
2022-07-26T14:27:42.414Z,7.65
2022-07-26T14:30:09.974Z,12.98
2022-07-26T14:32:37.016Z,8.45
2022-07-26T14:35:05.247Z,8.47
2022-07-26T14:37:43.306Z,6.07
2022-07-26T14:40:15.926Z,9.68
2022-07-26T14:42:43.865Z,9.48
2022-07-26T14:45:12.001Z,6.47
2022-07-26T14:47:39.552Z,6.67
2022-07-26T14:50:08.196Z,8.48
2022-07-26T14:52:41.015Z,10.48
2022-07-26T14:55:09.308Z,11.43
2022-07-26T14:57:39.481Z,15.30
2022-07-26T15:00:12.495Z,11.97
2022-07-26T15:02:45.346Z,8.05
2022-07-26T15:05:13.501Z,6.47
2022-07-26T15:07:41.495Z,9.23
2022-07-26T15:10:10.385Z,9.65
2022-07-26T15:12:38.223Z,20.10
2022-07-26T15:15:06.697Z,4.18
2022-07-26T15:17:33.877Z,12.10
2022-07-26T15:20:00.970Z,8.65
2022-07-26T15:22:28.195Z,9.65
2022-07-26T15:24:55.191Z,10.30
2022-07-26T15:27:22.200Z,10.10
2022-07-26T15:29:50.778Z,3.67
2022-07-26T15:32:17.908Z,5.95
2022-07-26T15:34:45.014Z,11.50
2022-07-26T15:37:12.379Z,13.02
2022-07-26T15:39:39.351Z,17.63
2022-07-26T15:42:07.512Z,13.05
2022-07-26T15:44:37.022Z,8.90
2022-07-26T15:47:04.154Z,11.80
2022-07-26T15:49:31.503Z,11.48
2022-07-26T15:51:58.891Z,3.85
2022-07-26T15:54:26.286Z,7.55
2022-07-26T15:56:53.243Z,19.13
2022-07-26T15:59:20.641Z,15.38
2022-07-26T16:01:47.684Z,6.03
2022-07-26T16:04:14.903Z,5.53
2022-07-26T16:06:42.155Z,9.55
2022-07-26T16:09:18.650Z,6.13
2022-07-26T16:11:47.908Z,6.03
2022-07-26T16:14:16.214Z,17.38
2022-07-26T16:16:43.624Z,3.85
2022-07-26T16:19:11.192Z,11.98
2022-07-26T16:21:38.692Z,6.35
2022-07-26T16:24:07.780Z,7.35
2022-07-26T16:26:36.225Z,7.18
2022-07-26T16:29:04.591Z,8.63
2022-07-26T16:31:32.792Z,7.47
2022-07-26T16:34:00.278Z,5.75
2022-07-26T16:36:27.675Z,5.00
2022-07-26T16:38:54.766Z,10.35
2022-07-26T16:41:21.840Z,7.68
2022-07-26T16:43:48.929Z,8.68
2022-07-26T16:46:15.999Z,8.75
2022-07-26T16:48:43.100Z,18.98
2022-07-26T16:51:10.278Z,16.35
2022-07-26T16:53:37.252Z,8.80
2022-07-26T16:56:04.362Z,9.50
2022-07-26T16:58:31.348Z,8.65
2022-07-26T17:00:58.475Z,10.00
2022-07-26T17:03:25.616Z,7.85
2022-07-26T17:05:52.592Z,5.05
2022-07-26T17:08:19.886Z,9.38
2022-07-26T17:10:46.959Z,9.65
2022-07-26T17:13:14.428Z,6.95
2022-07-26T17:15:41.415Z,4.47
2022-07-26T17:18:08.362Z,6.55
2022-07-26T17:20:36.136Z,11.25
2022-07-26T17:23:03.116Z,12.23
2022-07-26T17:25:30.302Z,4.82
2022-07-26T17:27:57.438Z,7.63
2022-07-26T17:30:24.729Z,9.68
2022-07-26T17:32:52.363Z,12.30
2022-07-26T17:35:19.759Z,7.20
2022-07-26T17:37:46.941Z,6.97
2022-07-26T17:40:16.305Z,5.93
2022-07-26T17:42:43.542Z,5.25
2022-07-26T17:45:10.844Z,9.00
2022-07-26T17:47:37.907Z,10.15
2022-07-26T17:50:35.229Z,7.60
2022-07-26T17:52:54.327Z,8.43
2022-07-26T17:55:22.051Z,7.03
2022-07-26T17:57:50.280Z,5.68
2022-07-26T18:00:19.910Z,10.75
2022-07-26T18:02:47.636Z,11.20
2022-07-26T18:05:14.983Z,5.60
2022-07-26T18:07:42.031Z,13.00
2022-07-26T18:10:10.194Z,11.35
2022-07-26T18:12:37.276Z,11.55
2022-07-26T18:15:05.098Z,8.93
2022-07-26T18:17:32.935Z,5.57
2022-07-26T18:19:59.963Z,2.97
2022-07-26T18:22:27.412Z,6.57
2022-07-26T18:24:54.506Z,6.07
2022-07-26T18:27:22.409Z,4.10
2022-07-26T18:29:50.061Z,10.50
2022-07-26T18:32:17.426Z,6.68
2022-07-26T18:34:51.448Z,6.45
2022-07-26T18:37:19.630Z,5.00
2022-07-26T18:39:46.809Z,16.77
2022-07-26T18:42:13.798Z,7.07
2022-07-26T18:44:40.866Z,3.42
2022-07-26T18:47:08.294Z,7.82
2022-07-26T18:49:35.498Z,11.00
2022-07-26T18:52:08.228Z,6.13
2022-07-26T18:54:36.544Z,8.25
2022-07-26T18:57:04.020Z,7.32
2022-07-26T18:59:31.304Z,3.67
2022-07-26T19:02:00.065Z,8.70
2022-07-26T19:04:28.358Z,7.73
2022-07-26T19:06:55.849Z,6.22
2022-07-26T19:09:22.891Z,4.10
2022-07-26T19:11:49.969Z,4.68
2022-07-26T19:14:17.093Z,6.78
2022-07-26T19:16:44.249Z,9.13
2022-07-26T19:19:11.566Z,6.30
2022-07-26T19:21:40.892Z,9.63
2022-07-26T19:24:07.877Z,15.63
2022-07-26T19:26:35.847Z,10.05
2022-07-26T19:29:02.897Z,8.77
2022-07-26T19:31:29.957Z,4.82
2022-07-26T19:33:56.923Z,6.93
2022-07-26T19:36:25.983Z,7.60
2022-07-26T19:38:55.845Z,14.85
2022-07-26T19:41:23.407Z,12.83
2022-07-26T19:43:50.464Z,4.57
2022-07-26T19:46:17.471Z,5.30
2022-07-26T19:48:44.542Z,5.93
2022-07-26T19:51:11.638Z,11.77
2022-07-26T19:53:38.571Z,6.10
2022-07-26T19:56:06.141Z,11.75
2022-07-26T19:58:33.385Z,6.80
2022-07-26T20:01:00.412Z,10.88
2022-07-26T20:03:27.378Z,5.93
2022-07-26T20:05:56.864Z,6.43
2022-07-26T20:08:24.783Z,7.45
2022-07-26T20:10:52.106Z,7.93
2022-07-26T20:13:19.162Z,7.35
2022-07-26T20:15:49.049Z,2.72
2022-07-26T20:18:18.384Z,2.80
2022-07-26T20:20:45.439Z,3.58
2022-07-26T20:23:12.368Z,6.60
2022-07-26T20:25:39.410Z,3.42
2022-07-26T20:28:06.351Z,6.13
2022-07-26T20:30:33.381Z,2.03
2022-07-26T20:33:00.359Z,5.18
2022-07-26T20:35:27.558Z,5.05
2022-07-26T20:37:54.604Z,4.88
2022-07-26T20:40:21.688Z,3.75
2022-07-26T20:42:50.272Z,1.07
2022-07-26T20:45:17.925Z,3.75
2022-07-26T20:47:44.896Z,3.55
2022-07-26T20:50:12.625Z,8.55
2022-07-26T20:52:39.738Z,1.75
2022-07-26T20:55:07.471Z,4.03
2022-07-26T20:57:34.803Z,4.57
2022-07-26T21:00:01.980Z,1.67
2022-07-26T21:02:29.133Z,3.67
2022-07-26T21:04:56.174Z,2.10
2022-07-26T21:07:24.268Z,3.13
2022-07-26T21:10:11.795Z,3.60
2022-07-26T21:12:38.751Z,4.40
2022-07-26T21:15:06.312Z,4.43
2022-07-26T21:17:34.594Z,3.50
2022-07-26T21:20:02.965Z,1.53
2022-07-26T21:22:30.164Z,5.13
2022-07-26T21:24:57.311Z,7.60
2022-07-26T21:27:24.361Z,4.28
2022-07-26T21:29:51.330Z,3.33
2022-07-26T21:32:18.305Z,4.47
2022-07-26T21:34:45.287Z,4.65
2022-07-26T21:37:12.296Z,4.38
2022-07-26T21:39:39.279Z,4.95
2022-07-26T21:42:06.308Z,3.47
2022-07-26T21:44:33.489Z,6.73
2022-07-26T21:47:00.534Z,1.38
2022-07-26T21:49:27.609Z,2.13
2022-07-26T21:51:54.616Z,6.32
2022-07-26T21:54:21.582Z,3.03
2022-07-26T21:56:48.597Z,3.00
2022-07-26T21:59:16.107Z,2.80
2022-07-26T22:01:44.499Z,6.63
2022-07-26T22:04:11.526Z,4.60
2022-07-26T22:06:38.513Z,9.90
2022-07-26T22:09:05.556Z,4.73
2022-07-26T22:11:32.548Z,6.05
2022-07-26T22:13:59.643Z,2.38
2022-07-26T22:16:26.771Z,6.63
2022-07-26T22:18:53.792Z,4.72
2022-07-26T22:21:20.843Z,2.70
2022-07-26T22:23:48.650Z,5.55
2022-07-26T22:26:16.306Z,2.15
2022-07-26T22:28:43.268Z,3.38
2022-07-26T22:31:10.358Z,4.10
2022-07-26T22:33:37.456Z,3.17
2022-07-26T22:36:04.812Z,5.13
2022-07-26T22:38:31.829Z,6.70
2022-07-26T22:40:59.946Z,4.32
2022-07-26T22:43:26.959Z,10.63
2022-07-26T22:45:54.050Z,1.53
2022-07-26T22:48:21.095Z,3.97
2022-07-26T22:50:48.098Z,2.00
2022-07-26T22:53:15.150Z,5.15
2022-07-26T22:55:42.254Z,1.92
2022-07-26T22:58:09.236Z,6.10
2022-07-26T23:00:36.487Z,3.45
2022-07-26T23:03:03.682Z,2.72
2022-07-26T23:05:45.539Z,1.38
2022-07-26T23:08:45.243Z,2.00
2022-07-26T23:11:00.840Z,3.00
2022-07-26T23:13:27.835Z,3.10
2022-07-26T23:16:00.390Z,3.13
2022-07-26T23:18:29.177Z,2.55
2022-07-26T23:20:56.107Z,3.47
2022-07-26T23:23:24.987Z,6.50
2022-07-26T23:25:57.505Z,4.10
2022-07-26T23:28:24.902Z,1.23
2022-07-26T23:31:11.717Z,4.85
2022-07-26T23:33:50.508Z,4.38
2022-07-26T23:36:29.880Z,3.73
2022-07-26T23:38:58.644Z,5.72
2022-07-26T23:41:26.668Z,5.18
2022-07-26T23:43:54.345Z,3.33
2022-07-26T23:46:22.253Z,4.78
2022-07-26T23:48:50.367Z,8.90
2022-07-26T23:51:19.673Z,4.25
2022-07-26T23:53:47.377Z,2.88
2022-07-26T23:56:15.673Z,7.20
2022-07-26T23:58:43.174Z,6.20
